createdAt,value
2018-03-25T00:02:13.960Z,9.07
2018-03-25T00:04:41.533Z,9.43
2018-03-25T00:07:09.028Z,8.70
2018-03-25T00:09:36.582Z,10.20
2018-03-25T00:12:04.041Z,8.80
2018-03-25T00:14:31.489Z,8.63
2018-03-25T00:16:58.954Z,9.30
2018-03-25T00:19:27.169Z,10.70
2018-03-25T00:21:54.617Z,9.83
2018-03-25T00:24:22.061Z,9.57
2018-03-25T00:26:50.284Z,10.67
2018-03-25T00:29:17.731Z,8.97
2018-03-25T00:31:45.960Z,9.30
2018-03-25T00:34:13.422Z,9.17
2018-03-25T00:36:40.877Z,8.40
2018-03-25T00:39:08.329Z,8.70
2018-03-25T00:41:36.537Z,9.53
2018-03-25T00:44:03.988Z,8.00
2018-03-25T00:46:32.216Z,9.20
2018-03-25T00:48:59.681Z,8.80
2018-03-25T00:51:27.133Z,8.27
2018-03-25T00:53:54.586Z,8.53
2018-03-25T00:56:22.798Z,8.60
2018-03-25T00:58:50.249Z,9.03
2018-03-25T01:01:18.460Z,9.40
2018-03-25T01:03:45.942Z,8.87
2018-03-25T01:06:13.436Z,8.07
2018-03-25T01:08:40.913Z,8.73
2018-03-25T01:11:08.388Z,8.97
2018-03-25T01:13:35.943Z,8.00
2018-03-25T01:16:11.756Z,8.53
2018-03-25T01:18:39.998Z,9.33
2018-03-25T01:21:07.446Z,10.07
2018-03-25T01:23:34.909Z,9.53
2018-03-25T01:26:03.109Z,9.70
2018-03-25T01:28:30.565Z,9.13
2018-03-25T01:30:58.009Z,8.50
2018-03-25T01:33:26.224Z,9.67
2018-03-25T01:35:53.729Z,10.23
2018-03-25T01:38:21.197Z,9.60
2018-03-25T01:40:48.641Z,10.20
2018-03-25T01:43:16.143Z,9.03
2018-03-25T01:45:50.349Z,9.37
2018-03-25T01:48:17.840Z,9.53
2018-03-25T01:50:45.322Z,9.30
2018-03-25T01:53:12.779Z,9.37
2018-03-25T01:55:40.353Z,9.60
2018-03-25T01:58:07.800Z,8.63
2018-03-25T02:00:35.276Z,8.67
2018-03-25T02:03:02.773Z,9.30
2018-03-25T02:05:30.245Z,8.77
2018-03-25T02:07:57.694Z,8.60
2018-03-25T02:10:25.170Z,9.37
2018-03-25T02:12:52.617Z,9.07
2018-03-25T02:15:20.096Z,8.40
2018-03-25T02:17:47.545Z,9.50
2018-03-25T02:20:15.785Z,9.73
2018-03-25T02:22:43.229Z,8.33
2018-03-25T02:25:10.709Z,9.53
2018-03-25T02:27:39.122Z,9.00
2018-03-25T02:30:06.593Z,9.97
2018-03-25T02:32:34.070Z,8.53
2018-03-25T02:35:01.519Z,9.27
2018-03-25T02:37:29.001Z,7.90
2018-03-25T02:39:56.478Z,7.90
2018-03-25T02:42:23.989Z,8.50
2018-03-25T02:44:51.436Z,9.90
2018-03-25T02:47:18.902Z,8.33
2018-03-25T02:49:46.345Z,8.20
2018-03-25T02:52:13.817Z,8.33
2018-03-25T02:54:41.264Z,8.83
2018-03-25T02:57:08.732Z,8.43
2018-03-25T02:59:36.177Z,8.70
2018-03-25T03:02:04.417Z,8.60
2018-03-25T03:04:31.873Z,8.90
2018-03-25T03:06:59.350Z,7.87
2018-03-25T03:09:26.807Z,9.83
2018-03-25T03:11:54.308Z,8.70
2018-03-25T03:14:21.783Z,9.17
2018-03-25T03:16:49.441Z,9.13
2018-03-25T03:19:16.893Z,7.77
2018-03-25T03:21:44.369Z,9.47
2018-03-25T03:24:11.809Z,8.90
2018-03-25T03:26:40.045Z,8.70
2018-03-25T03:29:07.485Z,8.73
2018-03-25T03:31:35.003Z,8.83
2018-03-25T03:34:02.440Z,9.10
2018-03-25T03:36:30.681Z,9.43
2018-03-25T03:38:58.246Z,8.60
2018-03-25T03:41:25.714Z,8.70
2018-03-25T03:43:53.156Z,8.70
2018-03-25T03:46:20.628Z,9.13
2018-03-25T03:48:48.065Z,9.03
2018-03-25T03:51:16.402Z,9.63
2018-03-25T03:53:43.844Z,8.57
2018-03-25T03:56:11.322Z,7.67
2018-03-25T03:58:38.778Z,8.70
2018-03-25T04:01:07.008Z,8.47
2018-03-25T04:03:34.450Z,8.67
2018-03-25T04:06:01.917Z,9.40
2018-03-25T04:08:29.353Z,8.70
2018-03-25T04:10:56.829Z,7.50
2018-03-25T04:13:25.048Z,8.67
2018-03-25T04:15:52.533Z,8.23
2018-03-25T04:18:19.964Z,8.00
2018-03-25T04:20:48.218Z,9.43
2018-03-25T04:23:15.659Z,7.93
2018-03-25T04:25:43.146Z,7.97
2018-03-25T04:28:10.625Z,8.13
2018-03-25T04:30:38.081Z,8.70
2018-03-25T04:33:05.553Z,8.53
2018-03-25T04:35:32.996Z,8.70
2018-03-25T04:38:00.469Z,8.30
2018-03-25T04:40:27.916Z,8.30
2018-03-25T04:42:56.157Z,8.40
2018-03-25T04:45:23.637Z,9.10
2018-03-25T04:47:51.113Z,7.67
2018-03-25T04:50:18.564Z,8.23
2018-03-25T04:52:46.033Z,9.00
2018-03-25T04:55:13.481Z,8.90
2018-03-25T04:57:40.952Z,9.00
2018-03-25T05:00:08.388Z,8.90
2018-03-25T05:02:35.861Z,8.83
2018-03-25T05:05:04.086Z,8.40
2018-03-25T05:07:31.586Z,8.90
2018-03-25T05:09:59.024Z,7.90
2018-03-25T05:12:26.494Z,8.63
2018-03-25T05:14:53.937Z,7.77
2018-03-25T05:17:22.190Z,8.10
2018-03-25T05:19:49.637Z,8.60
2018-03-25T05:22:17.108Z,8.27
2018-03-25T05:24:44.549Z,7.70
2018-03-25T05:27:12.896Z,8.50
2018-03-25T05:29:40.369Z,7.80
2018-03-25T05:32:07.933Z,8.10
2018-03-25T05:34:35.370Z,9.27
2018-03-25T05:37:02.880Z,8.53
2018-03-25T05:39:30.324Z,9.00
2018-03-25T05:41:57.801Z,9.73
2018-03-25T05:44:25.290Z,10.00
2018-03-25T05:46:52.733Z,10.70
2018-03-25T05:49:20.237Z,10.30
2018-03-25T05:51:47.717Z,9.00
2018-03-25T05:54:16.693Z,9.97
2018-03-25T05:56:44.282Z,9.43
2018-03-25T05:59:11.753Z,9.03
2018-03-25T06:01:39.204Z,8.53
2018-03-25T06:04:06.686Z,8.90
2018-03-25T06:06:34.128Z,8.27
2018-03-25T06:09:01.633Z,9.47
2018-03-25T06:11:29.073Z,9.70
2018-03-25T06:13:56.549Z,8.70
2018-03-25T07:17:21.955Z,10.83
2018-03-25T07:19:49.849Z,10.90
2018-03-25T07:22:17.683Z,11.10
2018-03-25T07:24:45.594Z,10.80
2018-03-25T07:27:13.131Z,10.30
2018-03-25T07:29:42.366Z,8.90
2018-03-25T07:32:09.975Z,9.57
2018-03-25T07:34:37.464Z,9.73
2018-03-25T07:37:04.972Z,9.00
2018-03-25T07:39:33.218Z,8.50
2018-03-25T07:42:00.730Z,9.00
2018-03-25T07:44:28.967Z,9.00
2018-03-25T07:46:56.445Z,9.03
2018-03-25T07:51:57.931Z,9.30
2018-03-25T07:54:25.395Z,9.13
2018-03-25T07:56:52.906Z,8.77
2018-03-25T07:59:20.367Z,8.73
2018-03-25T08:01:47.839Z,9.30
2018-03-25T08:04:15.316Z,8.43
2018-03-25T08:06:46.154Z,8.10
2018-03-25T08:09:13.706Z,8.80
2018-03-25T08:11:41.953Z,8.93
2018-03-25T08:14:10.203Z,8.33
2018-03-25T08:16:40.248Z,9.17
2018-03-25T08:19:07.727Z,8.83
2018-03-25T08:21:36.180Z,8.40
2018-03-25T08:24:03.725Z,8.93
2018-03-25T08:26:31.226Z,9.13
2018-03-25T08:28:59.467Z,9.27
2018-03-25T08:31:26.988Z,8.53
2018-03-25T08:33:56.268Z,8.33
2018-03-25T08:36:23.780Z,7.93
2018-03-25T08:38:51.269Z,7.97
2018-03-25T08:41:18.755Z,7.73
2018-03-25T08:43:46.258Z,8.53
2018-03-25T08:46:13.896Z,7.63
2018-03-25T08:48:42.170Z,8.43
2018-03-25T08:51:09.708Z,9.37
2018-03-25T08:53:37.971Z,8.77
2018-03-25T08:56:05.613Z,8.90
2018-03-25T08:58:33.118Z,10.20
2018-03-25T09:01:00.668Z,10.03
2018-03-25T09:03:28.189Z,9.40
2018-03-25T09:05:55.703Z,10.50
2018-03-25T09:08:23.185Z,10.57
2018-03-25T09:10:50.671Z,9.83
2018-03-25T09:13:18.949Z,10.53
2018-03-25T09:15:47.261Z,10.77
2018-03-25T09:18:14.746Z,10.70
2018-03-25T09:20:42.390Z,13.83
2018-03-25T09:23:10.730Z,12.20
2018-03-25T09:28:39.682Z,13.30
2018-03-25T09:31:07.209Z,12.70
2018-03-25T09:33:34.729Z,12.23
2018-03-25T09:36:02.290Z,12.57
2018-03-25T09:38:29.761Z,13.43
2018-03-25T09:40:57.262Z,13.00
2018-03-25T09:43:24.728Z,13.10
2018-03-25T09:45:52.280Z,13.20
2018-03-25T09:48:19.740Z,13.50
2018-03-25T09:50:47.230Z,12.60
2018-03-25T09:53:14.708Z,15.70
2018-03-25T09:55:42.221Z,12.77
2018-03-25T09:58:10.450Z,13.10
2018-03-25T10:00:37.952Z,13.00
2018-03-25T10:03:11.148Z,14.00
2018-03-25T10:05:38.658Z,14.03
2018-03-25T10:08:06.893Z,12.17
2018-03-25T10:10:34.409Z,12.73
2018-03-25T10:13:02.636Z,13.13
2018-03-25T10:15:30.127Z,14.50
2018-03-25T10:17:57.631Z,13.83
2018-03-25T10:20:25.893Z,14.57
2018-03-25T10:22:53.366Z,14.30
2018-03-25T10:25:22.513Z,13.53
2018-03-25T10:27:50.741Z,13.27
2018-03-25T10:30:18.234Z,13.90
2018-03-25T10:32:45.705Z,14.00
2018-03-25T10:35:13.209Z,14.30
2018-03-25T10:37:40.665Z,13.90
2018-03-25T10:40:08.168Z,13.20
2018-03-25T10:42:36.413Z,14.83
2018-03-25T10:45:03.890Z,14.00
2018-03-25T10:47:31.354Z,15.00
2018-03-25T10:49:58.883Z,15.33
2018-03-25T10:52:26.362Z,14.73
2018-03-25T10:54:53.826Z,15.40
2018-03-25T10:57:21.352Z,14.37
2018-03-25T10:59:48.819Z,14.40
2018-03-25T11:02:16.334Z,15.33
2018-03-25T11:04:43.876Z,15.13
2018-03-25T11:07:11.390Z,16.03
2018-03-25T11:09:38.859Z,15.10
2018-03-25T11:12:06.341Z,15.33
2018-03-25T11:14:33.819Z,15.37
2018-03-25T11:17:01.317Z,15.80
2018-03-25T11:19:28.773Z,15.63
2018-03-25T11:21:56.271Z,15.40
2018-03-25T11:24:23.777Z,15.13
2018-03-25T11:26:52.035Z,14.50
2018-03-25T11:29:19.503Z,14.33
2018-03-25T11:31:46.995Z,16.13
2018-03-25T11:34:15.227Z,16.10
2018-03-25T11:36:42.721Z,15.17
2018-03-25T11:39:10.186Z,15.63
2018-03-25T11:41:38.452Z,15.40
2018-03-25T11:44:05.913Z,17.30
2018-03-25T11:46:33.402Z,14.67
2018-03-25T11:49:00.872Z,14.90
2018-03-25T11:51:28.373Z,15.40
2018-03-25T11:53:55.836Z,14.30
2018-03-25T11:56:23.338Z,13.93
2018-03-25T11:58:51.582Z,16.03
2018-03-25T12:01:19.069Z,15.57
2018-03-25T12:03:46.534Z,14.47
2018-03-25T12:06:14.026Z,15.17
2018-03-25T12:08:41.514Z,15.00
2018-03-25T12:11:09.828Z,14.60
2018-03-25T12:13:37.260Z,15.50
2018-03-25T12:16:04.754Z,15.33
2018-03-25T12:18:32.993Z,15.60
2018-03-25T12:21:00.488Z,14.30
2018-03-25T12:23:27.964Z,16.13
2018-03-25T12:25:55.451Z,16.43
2018-03-25T12:28:23.691Z,15.77
2018-03-25T12:30:51.186Z,15.77
2018-03-25T12:33:18.673Z,14.67
2018-03-25T12:35:46.940Z,15.23
2018-03-25T12:38:14.405Z,14.97
2018-03-25T12:40:41.908Z,16.50
2018-03-25T12:43:09.387Z,14.77
2018-03-25T12:45:37.715Z,15.17
2018-03-25T12:48:05.178Z,15.17
2018-03-25T12:50:32.670Z,14.77
2018-03-25T12:53:00.150Z,16.30
2018-03-25T12:55:27.653Z,16.00
2018-03-25T12:57:55.890Z,15.23
2018-03-25T13:00:23.385Z,15.53
2018-03-25T13:02:50.855Z,15.53
2018-03-25T13:05:18.343Z,14.00
2018-03-25T13:07:45.809Z,14.70
2018-03-25T13:10:13.303Z,14.10
2018-03-25T13:12:41.538Z,13.33
2018-03-25T13:15:09.034Z,14.40
2018-03-25T13:17:36.494Z,14.00
2018-03-25T13:20:04.079Z,13.07
2018-03-25T13:22:31.573Z,12.93
2018-03-25T13:24:59.056Z,14.27
2018-03-25T13:27:27.282Z,14.07
2018-03-25T13:29:54.791Z,14.43
2018-03-25T13:32:22.266Z,14.77
2018-03-25T13:34:49.767Z,13.80
2018-03-25T13:37:18.014Z,14.40
2018-03-25T13:39:45.519Z,13.53
2018-03-25T13:42:13.746Z,12.80
2018-03-25T13:44:41.251Z,13.00
2018-03-25T13:47:08.705Z,14.50
2018-03-25T13:49:36.206Z,14.20
2018-03-25T13:52:03.678Z,12.47
2018-03-25T13:54:31.941Z,13.27
2018-03-25T13:57:00.224Z,11.50
2018-03-25T13:59:27.733Z,11.77
2018-03-25T14:01:55.965Z,10.50
2018-03-25T14:04:23.474Z,10.20
2018-03-25T14:06:50.949Z,9.20
2018-03-25T14:09:19.207Z,9.80
2018-03-25T14:11:46.702Z,9.00
2018-03-25T14:14:14.192Z,9.37
2018-03-25T14:16:41.734Z,10.60
2018-03-25T14:19:09.191Z,10.60
2018-03-25T14:21:36.722Z,9.87
2018-03-25T14:24:04.941Z,11.70
2018-03-25T14:26:32.466Z,11.77
2018-03-25T14:28:59.941Z,13.50
2018-03-25T14:31:27.435Z,14.10
2018-03-25T14:33:54.902Z,12.70
2018-03-25T14:36:23.186Z,7.90
2018-03-25T14:38:51.415Z,7.00
2018-03-25T14:41:25.795Z,9.53
2018-03-25T14:43:53.203Z,8.63
2018-03-25T14:46:20.705Z,9.13
2018-03-25T14:48:48.193Z,9.67
2018-03-25T14:51:15.697Z,9.13
2018-03-25T14:53:43.936Z,12.30
2018-03-25T14:56:11.430Z,12.47
2018-03-25T14:58:38.935Z,11.27
2018-03-25T15:01:06.425Z,12.20
2018-03-25T15:03:33.928Z,11.23
2018-03-25T15:06:02.185Z,12.63
2018-03-25T15:08:29.660Z,11.60
2018-03-25T15:10:57.159Z,13.20
2018-03-25T15:13:24.634Z,13.43
2018-03-25T15:15:52.140Z,11.63
2018-03-25T15:18:20.375Z,11.23
2018-03-25T15:20:47.862Z,12.20
2018-03-25T15:23:15.333Z,11.97
2018-03-25T15:25:42.829Z,11.77
2018-03-25T15:28:11.070Z,11.60
2018-03-25T15:30:38.570Z,12.37
2018-03-25T15:33:06.021Z,9.57
2018-03-25T15:35:33.509Z,8.53
2018-03-25T15:38:01.009Z,9.47
2018-03-25T15:40:28.468Z,10.77
2018-03-25T15:42:55.933Z,8.27
2018-03-25T15:45:23.430Z,11.13
2018-03-25T15:47:53.455Z,11.10
2018-03-25T15:50:21.014Z,9.90
2018-03-25T15:52:48.498Z,10.13
2018-03-25T15:55:15.992Z,8.10
2018-03-25T15:57:43.466Z,8.63
2018-03-25T16:00:10.952Z,10.10
2018-03-25T16:02:38.430Z,10.97
2018-03-25T16:05:05.926Z,9.10
2018-03-25T16:07:33.390Z,10.53
2018-03-25T16:10:00.886Z,11.43
2018-03-25T16:12:28.349Z,10.97
2018-03-25T16:14:55.841Z,9.40
2018-03-25T16:17:24.065Z,11.67
2018-03-25T16:19:51.550Z,8.33
2018-03-25T16:22:19.034Z,10.00
2018-03-25T16:24:46.531Z,12.00
2018-03-25T16:27:13.990Z,9.23
2018-03-25T16:29:42.255Z,10.40
2018-03-25T16:32:09.724Z,9.47
2018-03-25T16:34:37.205Z,11.23
2018-03-25T16:37:04.671Z,11.67
2018-03-25T16:39:32.171Z,11.10
2018-03-25T16:41:59.638Z,11.47
2018-03-25T16:44:27.121Z,12.07
2018-03-25T16:46:55.546Z,10.47
2018-03-25T16:49:23.043Z,7.83
2018-03-25T16:51:50.534Z,12.20
2018-03-25T16:54:18.018Z,11.83
2018-03-25T16:56:45.496Z,12.37
2018-03-25T16:59:13.056Z,10.30
2018-03-25T17:01:40.530Z,11.50
2018-03-25T17:04:08.014Z,10.10
2018-03-25T17:06:35.485Z,12.50
2018-03-25T17:09:03.045Z,12.07
2018-03-25T17:11:30.470Z,12.40
2018-03-25T17:13:57.945Z,8.00
2018-03-25T17:16:25.409Z,10.33
2018-03-25T17:18:52.898Z,7.80
2018-03-25T17:21:21.154Z,8.90
2018-03-25T17:23:49.390Z,9.10
2018-03-25T17:26:16.877Z,10.93
2018-03-25T17:28:44.344Z,10.03
2018-03-25T17:31:11.849Z,8.50
2018-03-25T17:33:40.097Z,9.00
2018-03-25T17:36:07.590Z,7.97
2018-03-25T17:38:35.103Z,9.30
2018-03-25T17:41:02.603Z,8.57
2018-03-25T17:43:30.065Z,8.63
2018-03-25T17:45:58.550Z,7.90
2018-03-25T17:48:26.033Z,9.00
2018-03-25T17:50:53.517Z,9.70
2018-03-25T17:53:20.977Z,8.77
2018-03-25T17:55:48.540Z,9.33
2018-03-25T17:58:16.727Z,10.93
2018-03-25T18:00:44.214Z,9.60
2018-03-25T18:03:11.781Z,8.70
2018-03-25T18:05:39.299Z,9.07
2018-03-25T18:08:06.748Z,9.07
2018-03-25T18:10:34.245Z,8.90
2018-03-25T18:13:02.487Z,11.63
2018-03-25T18:15:29.984Z,10.93
2018-03-25T18:17:57.648Z,10.47
2018-03-25T18:20:25.909Z,9.10
2018-03-25T18:22:53.354Z,9.60
2018-03-25T18:25:21.611Z,9.53
2018-03-25T18:27:49.071Z,8.57
2018-03-25T18:30:16.554Z,8.83
2018-03-25T18:32:44.014Z,7.80
2018-03-25T18:35:11.493Z,8.30
2018-03-25T18:37:38.972Z,7.80
2018-03-25T18:40:06.454Z,7.27
2018-03-25T18:42:34.673Z,6.63
2018-03-25T18:45:02.158Z,7.57
2018-03-25T18:47:29.619Z,6.97
2018-03-25T18:49:57.112Z,6.93
2018-03-25T18:52:24.570Z,8.00
2018-03-25T18:54:52.061Z,8.67
2018-03-25T18:57:19.502Z,6.90
2018-03-25T18:59:46.982Z,7.60
2018-03-25T19:02:14.447Z,8.10
2018-03-25T19:04:41.925Z,7.77
2018-03-25T19:07:09.390Z,7.60
2018-03-25T19:09:36.874Z,8.03
2018-03-25T19:12:05.135Z,8.00
2018-03-25T19:14:32.622Z,8.90
2018-03-25T19:17:00.090Z,8.53
2018-03-25T19:19:27.569Z,7.13
2018-03-25T19:21:55.033Z,8.00
2018-03-25T19:24:22.520Z,8.03
2018-03-25T19:26:49.981Z,8.00
2018-03-25T19:29:17.458Z,8.13
2018-03-25T19:31:44.982Z,8.50
2018-03-25T19:34:12.466Z,8.00
2018-03-25T19:36:40.682Z,7.67
2018-03-25T19:39:08.171Z,8.03
2018-03-25T19:41:35.622Z,7.37
2018-03-25T19:44:03.147Z,7.70
2018-03-25T19:46:30.597Z,7.33
2018-03-25T19:48:58.072Z,8.03
2018-03-25T19:51:25.535Z,9.27
2018-03-25T19:53:53.789Z,9.93
2018-03-25T19:56:21.233Z,10.10
2018-03-25T19:58:49.481Z,9.40
2018-03-25T20:01:16.945Z,10.00
2018-03-25T20:03:44.488Z,10.20
2018-03-25T20:06:11.886Z,10.70
2018-03-25T20:08:39.382Z,10.03
2018-03-25T20:11:06.867Z,11.60
2018-03-25T20:13:34.336Z,10.10
2018-03-25T20:16:01.821Z,9.50
2018-03-25T20:18:30.061Z,8.80
2018-03-25T20:20:57.518Z,9.30
2018-03-25T20:23:24.990Z,9.70
2018-03-25T20:25:52.445Z,8.40
2018-03-25T20:28:19.926Z,10.07
2018-03-25T20:30:47.386Z,9.20
2018-03-25T20:33:15.718Z,9.70
2018-03-25T20:35:43.954Z,8.80
2018-03-25T20:38:11.477Z,10.43
2018-03-25T20:40:38.958Z,10.70
2018-03-25T20:43:07.174Z,9.23
2018-03-25T20:45:35.403Z,9.37
2018-03-25T20:48:02.861Z,9.53
2018-03-25T20:50:30.341Z,9.90
2018-03-25T20:52:57.781Z,9.70
2018-03-25T20:55:26.012Z,8.97
2018-03-25T20:57:53.465Z,10.93
2018-03-25T21:00:20.931Z,8.63
2018-03-25T21:02:48.395Z,10.00
2018-03-25T21:05:16.623Z,9.73
2018-03-25T21:07:44.070Z,9.20
2018-03-25T21:10:11.530Z,9.53
2018-03-25T21:12:39.010Z,10.07
2018-03-25T21:15:06.600Z,9.40
2018-03-25T21:17:34.071Z,9.17
2018-03-25T21:20:01.532Z,10.33
2018-03-25T21:22:28.984Z,10.30
2018-03-25T21:24:56.438Z,10.90
2018-03-25T21:27:24.661Z,10.67
2018-03-25T21:29:52.117Z,10.40
2018-03-25T21:32:19.574Z,8.50
2018-03-25T21:34:47.802Z,9.67
2018-03-25T21:37:15.264Z,10.37
2018-03-25T21:39:42.740Z,10.97
2018-03-25T21:42:10.217Z,9.30
2018-03-25T21:44:37.674Z,10.80
2018-03-25T21:47:05.146Z,12.00
2018-03-25T21:49:32.602Z,11.60
2018-03-25T21:52:00.185Z,10.80
2018-03-25T21:54:27.666Z,12.50
2018-03-25T21:56:55.140Z,10.73
2018-03-25T21:59:22.607Z,12.50
2018-03-25T22:01:50.199Z,13.47
2018-03-25T22:04:17.678Z,10.80
2018-03-25T22:06:45.140Z,11.13
2018-03-25T22:09:12.606Z,12.80
2018-03-25T22:11:40.094Z,12.40
2018-03-25T22:14:07.581Z,12.90
2018-03-25T22:16:35.017Z,11.33
2018-03-25T22:19:02.614Z,12.10
2018-03-25T22:21:30.090Z,13.03
2018-03-25T22:23:57.557Z,12.60
2018-03-25T22:26:25.020Z,11.87
2018-03-25T22:28:53.254Z,12.10
2018-03-25T22:31:20.838Z,12.57
2018-03-25T22:33:48.402Z,12.33
2018-03-25T22:36:15.847Z,13.37
2018-03-25T22:38:44.092Z,12.40
2018-03-25T22:41:11.551Z,11.77
2018-03-25T22:43:39.008Z,13.43
2018-03-25T22:46:06.465Z,12.57
2018-03-25T22:48:33.937Z,12.30
2018-03-25T22:51:02.280Z,13.90
2018-03-25T22:53:29.737Z,11.57
2018-03-25T22:55:57.194Z,12.90
2018-03-25T22:58:24.667Z,12.43
2018-03-25T23:00:52.119Z,12.87
2018-03-25T23:03:19.588Z,11.90
2018-03-25T23:05:47.046Z,13.00
2018-03-25T23:08:15.268Z,12.70
2018-03-25T23:10:42.724Z,13.20
2018-03-25T23:13:10.186Z,13.50
2018-03-25T23:15:37.643Z,13.27
2018-03-25T23:18:05.093Z,13.07
2018-03-25T23:20:32.558Z,13.30
2018-03-25T23:23:00.030Z,13.60
2018-03-25T23:25:27.525Z,13.80
2018-03-25T23:27:55.752Z,13.57
2018-03-25T23:30:23.225Z,13.07
2018-03-25T23:32:50.680Z,12.47
2018-03-25T23:35:20.659Z,13.57
2018-03-25T23:37:48.313Z,13.60
2018-03-25T23:40:15.782Z,14.70
2018-03-25T23:42:43.250Z,17.07
2018-03-25T23:45:10.706Z,13.23
2018-03-25T23:47:38.169Z,13.00
2018-03-25T23:50:05.622Z,13.17
2018-03-25T23:52:33.859Z,13.10
2018-03-25T23:55:01.314Z,12.93
2018-03-25T23:57:28.771Z,13.07
2018-03-25T23:59:56.228Z,12.70
